sensor_id;sensor_type;location;lat;lon;timestamp;temperature;humidity
78475;SHT31;67766;51.964;5.660;2023-05-07T13:59:07;26.7;44.3
78475;SHT31;67766;51.964;5.660;2023-05-07T14:01:37;26.6;43.7
78475;SHT31;67766;51.964;5.660;2023-05-07T14:04:07;26.5;44.8
78475;SHT31;67766;51.964;5.660;2023-05-07T14:06:37;26.4;45.3
78475;SHT31;67766;51.964;5.660;2023-05-07T14:09:06;26.3;44.5
78475;SHT31;67766;51.964;5.660;2023-05-07T14:11:36;26.2;45.5
78475;SHT31;67766;51.964;5.660;2023-05-07T14:14:05;26.1;45.6
78475;SHT31;67766;51.964;5.660;2023-05-07T14:16:38;26.0;45.0
78475;SHT31;67766;51.964;5.660;2023-05-07T14:19:07;25.9;46.0
78475;SHT31;67766;51.964;5.660;2023-05-07T14:21:37;25.8;46.7
78475;SHT31;67766;51.964;5.660;2023-05-07T14:24:08;25.7;46.3
78475;SHT31;67766;51.964;5.660;2023-05-07T14:26:39;25.6;47.3
78475;SHT31;67766;51.964;5.660;2023-05-07T14:29:09;25.6;46.6
78475;SHT31;67766;51.964;5.660;2023-05-07T14:31:38;25.5;47.0
78475;SHT31;67766;51.964;5.660;2023-05-07T14:34:08;25.4;47.1
78475;SHT31;67766;51.964;5.660;2023-05-07T14:36:38;25.4;47.3
78475;SHT31;67766;51.964;5.660;2023-05-07T14:39:09;25.3;47.3
78475;SHT31;67766;51.964;5.660;2023-05-07T14:41:38;25.3;47.4
78475;SHT31;67766;51.964;5.660;2023-05-07T14:44:10;25.3;47.6
78475;SHT31;67766;51.964;5.660;2023-05-07T14:46:39;25.2;47.5
78475;SHT31;67766;51.964;5.660;2023-05-07T14:49:09;25.2;48.2
78475;SHT31;67766;51.964;5.660;2023-05-07T14:51:44;25.2;48.9
78475;SHT31;67766;51.964;5.660;2023-05-07T14:54:14;25.2;49.0
78475;SHT31;67766;51.964;5.660;2023-05-07T14:56:44;25.2;49.3
78475;SHT31;67766;51.964;5.660;2023-05-07T14:59:14;25.2;49.2
78475;SHT31;67766;51.964;5.660;2023-05-07T15:01:47;25.1;48.1
78475;SHT31;67766;51.964;5.660;2023-05-07T15:04:18;25.1;49.1
78475;SHT31;67766;51.964;5.660;2023-05-07T15:06:55;25.1;48.5
78475;SHT31;67766;51.964;5.660;2023-05-07T15:09:25;25.1;48.6
78475;SHT31;67766;51.964;5.660;2023-05-07T15:11:56;25.1;48.7
78475;SHT31;67766;51.964;5.660;2023-05-07T15:14:26;25.1;46.1
78475;SHT31;67766;51.964;5.660;2023-05-07T15:16:57;24.9;45.9
78475;SHT31;67766;51.964;5.660;2023-05-07T15:19:27;24.6;46.8
78475;SHT31;67766;51.964;5.660;2023-05-07T15:21:59;24.2;47.5
78475;SHT31;67766;51.964;5.660;2023-05-07T15:24:30;23.8;48.1
78475;SHT31;67766;51.964;5.660;2023-05-07T15:27:01;23.4;48.8
78475;SHT31;67766;51.964;5.660;2023-05-07T15:29:32;23.1;49.6
78475;SHT31;67766;51.964;5.660;2023-05-07T15:32:01;22.9;50.1
78475;SHT31;67766;51.964;5.660;2023-05-07T15:34:31;22.8;49.8
78475;SHT31;67766;51.964;5.660;2023-05-07T15:37:00;22.7;50.1
78475;SHT31;67766;51.964;5.660;2023-05-07T15:39:30;22.6;51.7
78475;SHT31;67766;51.964;5.660;2023-05-07T15:41:59;22.4;52.0
78475;SHT31;67766;51.964;5.660;2023-05-07T15:44:30;22.1;53.1
78475;SHT31;67766;51.964;5.660;2023-05-07T15:47:00;21.8;54.4
78475;SHT31;67766;51.964;5.660;2023-05-07T15:49:30;21.5;55.8
78475;SHT31;67766;51.964;5.660;2023-05-07T15:51:59;21.2;57.1
78475;SHT31;67766;51.964;5.660;2023-05-07T15:54:29;21.0;58.1
78475;SHT31;67766;51.964;5.660;2023-05-07T15:56:59;20.8;59.5
78475;SHT31;67766;51.964;5.660;2023-05-07T15:59:30;20.7;61.2
78475;SHT31;67766;51.964;5.660;2023-05-07T16:02:01;20.7;60.9
78475;SHT31;67766;51.964;5.660;2023-05-07T16:04:31;20.6;60.5
78475;SHT31;67766;51.964;5.660;2023-05-07T16:07:00;20.6;61.6
78475;SHT31;67766;51.964;5.660;2023-05-07T16:09:30;20.7;62.0
78475;SHT31;67766;51.964;5.660;2023-05-07T16:12:00;20.7;62.2
78475;SHT31;67766;51.964;5.660;2023-05-07T16:14:30;20.8;62.2
78475;SHT31;67766;51.964;5.660;2023-05-07T16:16:59;20.9;62.5
78475;SHT31;67766;51.964;5.660;2023-05-07T16:19:29;21.0;62.5
78475;SHT31;67766;51.964;5.660;2023-05-07T16:21:59;21.1;62.0
78475;SHT31;67766;51.964;5.660;2023-05-07T16:24:29;21.2;61.0
78475;SHT31;67766;51.964;5.660;2023-05-07T16:26:59;21.2;60.3
78475;SHT31;67766;51.964;5.660;2023-05-07T16:29:29;21.2;60.2
78475;SHT31;67766;51.964;5.660;2023-05-07T16:31:58;21.3;60.4
78475;SHT31;67766;51.964;5.660;2023-05-07T16:34:28;21.3;60.5
78475;SHT31;67766;51.964;5.660;2023-05-07T16:36:57;21.4;60.3
78475;SHT31;67766;51.964;5.660;2023-05-07T16:39:27;21.4;60.2
78475;SHT31;67766;51.964;5.660;2023-05-07T16:41:57;21.5;60.1
78475;SHT31;67766;51.964;5.660;2023-05-07T16:44:28;21.5;60.6
78475;SHT31;67766;51.964;5.660;2023-05-07T16:46:57;21.6;59.7
78475;SHT31;67766;51.964;5.660;2023-05-07T16:49:27;21.6;59.9
78475;SHT31;67766;51.964;5.660;2023-05-07T16:51:57;21.7;59.1
78475;SHT31;67766;51.964;5.660;2023-05-07T16:54:26;21.7;58.9
78475;SHT31;67766;51.964;5.660;2023-05-07T16:56:56;21.8;58.7
78475;SHT31;67766;51.964;5.660;2023-05-07T16:59:26;21.8;58.8
78475;SHT31;67766;51.964;5.660;2023-05-07T17:01:58;21.8;59.0
78475;SHT31;67766;51.964;5.660;2023-05-07T17:04:28;21.9;58.8
78475;SHT31;67766;51.964;5.660;2023-05-07T17:06:59;21.8;59.0
78475;SHT31;67766;51.964;5.660;2023-05-07T17:09:28;21.8;59.2
78475;SHT31;67766;51.964;5.660;2023-05-07T17:11:58;21.8;59.3
78475;SHT31;67766;51.964;5.660;2023-05-07T17:14:28;21.8;59.2
78475;SHT31;67766;51.964;5.660;2023-05-07T17:16:57;21.7;59.4
78475;SHT31;67766;51.964;5.660;2023-05-07T17:19:27;21.7;59.4
78475;SHT31;67766;51.964;5.660;2023-05-07T17:21:56;21.6;59.5
78475;SHT31;67766;51.964;5.660;2023-05-07T17:24:26;21.6;59.1
78475;SHT31;67766;51.964;5.660;2023-05-07T17:26:56;21.6;59.0
78475;SHT31;67766;51.964;5.660;2023-05-07T17:29:25;21.6;58.9
78475;SHT31;67766;51.964;5.660;2023-05-07T17:31:55;21.5;59.4
78475;SHT31;67766;51.964;5.660;2023-05-07T17:34:26;21.5;59.1
78475;SHT31;67766;51.964;5.660;2023-05-07T17:36:58;21.5;59.4
78475;SHT31;67766;51.964;5.660;2023-05-07T17:39:27;21.4;60.1
78475;SHT31;67766;51.964;5.660;2023-05-07T17:41:57;21.4;60.4
78475;SHT31;67766;51.964;5.660;2023-05-07T17:44:27;21.4;60.8
78475;SHT31;67766;51.964;5.660;2023-05-07T17:46:59;21.4;60.4
78475;SHT31;67766;51.964;5.660;2023-05-07T17:49:30;21.4;60.5
78475;SHT31;67766;51.964;5.660;2023-05-07T17:51:59;21.4;60.5
78475;SHT31;67766;51.964;5.660;2023-05-07T17:54:29;21.4;61.1
78475;SHT31;67766;51.964;5.660;2023-05-07T17:57:00;21.4;61.1
78475;SHT31;67766;51.964;5.660;2023-05-07T17:59:32;21.4;60.4
78475;SHT31;67766;51.964;5.660;2023-05-07T18:02:01;21.4;59.9
78475;SHT31;67766;51.964;5.660;2023-05-07T18:04:31;21.4;60.4
78475;SHT31;67766;51.964;5.660;2023-05-07T18:07:01;21.4;59.5
78475;SHT31;67766;51.964;5.660;2023-05-07T18:09:30;21.4;58.9
78475;SHT31;67766;51.964;5.660;2023-05-07T18:12:00;21.4;59.5
78475;SHT31;67766;51.964;5.660;2023-05-07T18:14:29;21.4;59.2
78475;SHT31;67766;51.964;5.660;2023-05-07T18:16:59;21.4;59.2
78475;SHT31;67766;51.964;5.660;2023-05-07T18:19:28;21.3;58.1
78475;SHT31;67766;51.964;5.660;2023-05-07T18:21:58;21.3;58.1
78475;SHT31;67766;51.964;5.660;2023-05-07T18:24:28;21.3;58.0
78475;SHT31;67766;51.964;5.660;2023-05-07T18:26:57;21.3;58.7
78475;SHT31;67766;51.964;5.660;2023-05-07T18:29:27;21.3;59.1
78475;SHT31;67766;51.964;5.660;2023-05-07T18:31:57;21.2;58.7
78475;SHT31;67766;51.964;5.660;2023-05-07T18:34:27;21.2;59.0
78475;SHT31;67766;51.964;5.660;2023-05-07T18:36:56;21.2;58.9
78475;SHT31;67766;51.964;5.660;2023-05-07T18:39:26;21.2;59.5
78475;SHT31;67766;51.964;5.660;2023-05-07T18:41:56;21.2;59.0
78475;SHT31;67766;51.964;5.660;2023-05-07T18:44:26;21.2;59.1
78475;SHT31;67766;51.964;5.660;2023-05-07T18:46:57;21.1;59.4
78475;SHT31;67766;51.964;5.660;2023-05-07T18:49:27;21.1;60.3
78475;SHT31;67766;51.964;5.660;2023-05-07T18:51:57;21.1;59.8
78475;SHT31;67766;51.964;5.660;2023-05-07T18:54:26;21.1;60.1
78475;SHT31;67766;51.964;5.660;2023-05-07T18:56:56;21.0;59.9
78475;SHT31;67766;51.964;5.660;2023-05-07T18:59:26;21.0;60.4
78475;SHT31;67766;51.964;5.660;2023-05-07T19:01:56;21.0;60.6
78475;SHT31;67766;51.964;5.660;2023-05-07T19:04:26;21.0;60.2
78475;SHT31;67766;51.964;5.660;2023-05-07T19:06:56;21.0;60.1
78475;SHT31;67766;51.964;5.660;2023-05-07T19:09:26;21.0;60.2
78475;SHT31;67766;51.964;5.660;2023-05-07T19:11:57;20.9;60.7
78475;SHT31;67766;51.964;5.660;2023-05-07T19:14:28;20.9;61.2
78475;SHT31;67766;51.964;5.660;2023-05-07T19:16:58;20.9;61.6
78475;SHT31;67766;51.964;5.660;2023-05-07T19:19:30;20.9;61.7
78475;SHT31;67766;51.964;5.660;2023-05-07T19:21:59;20.9;62.0
78475;SHT31;67766;51.964;5.660;2023-05-07T19:24:29;20.9;62.0
78475;SHT31;67766;51.964;5.660;2023-05-07T19:26:59;20.9;61.9
78475;SHT31;67766;51.964;5.660;2023-05-07T19:29:32;20.9;62.3
78475;SHT31;67766;51.964;5.660;2023-05-07T19:32:02;20.9;62.3
78475;SHT31;67766;51.964;5.660;2023-05-07T19:34:31;20.9;61.9
78475;SHT31;67766;51.964;5.660;2023-05-07T19:37:02;20.9;62.1
78475;SHT31;67766;51.964;5.660;2023-05-07T19:39:32;20.9;61.9
78475;SHT31;67766;51.964;5.660;2023-05-07T19:42:01;20.9;62.1
78475;SHT31;67766;51.964;5.660;2023-05-07T19:44:31;20.9;61.9
78475;SHT31;67766;51.964;5.660;2023-05-07T19:47:01;20.9;61.2
78475;SHT31;67766;51.964;5.660;2023-05-07T19:49:31;20.9;61.6
78475;SHT31;67766;51.964;5.660;2023-05-07T19:52:02;20.9;61.2
78475;SHT31;67766;51.964;5.660;2023-05-07T19:54:32;20.9;61.0
78475;SHT31;67766;51.964;5.660;2023-05-07T19:57:01;20.9;60.8
78475;SHT31;67766;51.964;5.660;2023-05-07T19:59:31;20.9;61.0
78475;SHT31;67766;51.964;5.660;2023-05-07T20:02:01;20.8;61.0
78475;SHT31;67766;51.964;5.660;2023-05-07T20:04:30;20.8;61.3
78475;SHT31;67766;51.964;5.660;2023-05-07T20:07:05;20.8;60.2
78475;SHT31;67766;51.964;5.660;2023-05-07T20:09:35;20.8;60.4
78475;SHT31;67766;51.964;5.660;2023-05-07T20:12:05;20.8;60.6
78475;SHT31;67766;51.964;5.660;2023-05-07T20:14:34;20.8;60.5
78475;SHT31;67766;51.964;5.660;2023-05-07T20:17:04;20.7;61.1
78475;SHT31;67766;51.964;5.660;2023-05-07T20:19:34;20.7;61.3
78475;SHT31;67766;51.964;5.660;2023-05-07T20:22:03;20.7;61.3
78475;SHT31;67766;51.964;5.660;2023-05-07T20:24:37;20.7;61.3
78475;SHT31;67766;51.964;5.660;2023-05-07T20:27:07;20.7;61.8
78475;SHT31;67766;51.964;5.660;2023-05-07T20:29:37;20.6;61.9
78475;SHT31;67766;51.964;5.660;2023-05-07T20:32:06;20.6;62.1
78475;SHT31;67766;51.964;5.660;2023-05-07T20:34:36;20.6;62.2
78475;SHT31;67766;51.964;5.660;2023-05-07T20:37:06;20.6;62.6
78475;SHT31;67766;51.964;5.660;2023-05-07T20:39:38;20.6;62.7
78475;SHT31;67766;51.964;5.660;2023-05-07T20:42:08;20.6;62.8
78475;SHT31;67766;51.964;5.660;2023-05-07T20:44:37;20.6;62.6
78475;SHT31;67766;51.964;5.660;2023-05-07T20:47:07;20.6;62.4
78475;SHT31;67766;51.964;5.660;2023-05-07T20:49:37;20.6;62.7
78475;SHT31;67766;51.964;5.660;2023-05-07T20:52:08;20.5;62.5
78475;SHT31;67766;51.964;5.660;2023-05-07T20:54:38;20.5;62.8
78475;SHT31;67766;51.964;5.660;2023-05-07T20:57:10;20.5;62.8
78475;SHT31;67766;51.964;5.660;2023-05-07T20:59:39;20.5;62.9
78475;SHT31;67766;51.964;5.660;2023-05-07T21:02:09;20.5;63.0
78475;SHT31;67766;51.964;5.660;2023-05-07T21:04:39;20.5;63.2
78475;SHT31;67766;51.964;5.660;2023-05-07T21:07:11;20.5;63.5
78475;SHT31;67766;51.964;5.660;2023-05-07T21:09:42;20.5;63.2
78475;SHT31;67766;51.964;5.660;2023-05-07T21:12:12;20.5;63.2
78475;SHT31;67766;51.964;5.660;2023-05-07T21:14:41;20.4;63.2
78475;SHT31;67766;51.964;5.660;2023-05-07T21:17:11;20.4;63.3
78475;SHT31;67766;51.964;5.660;2023-05-07T21:19:41;20.4;63.3
78475;SHT31;67766;51.964;5.660;2023-05-07T21:22:13;20.4;63.4
78475;SHT31;67766;51.964;5.660;2023-05-07T21:24:42;20.4;63.4
78475;SHT31;67766;51.964;5.660;2023-05-07T21:27:12;20.4;63.5
78475;SHT31;67766;51.964;5.660;2023-05-07T21:29:42;20.4;63.6
78475;SHT31;67766;51.964;5.660;2023-05-07T21:32:12;20.4;63.7
78475;SHT31;67766;51.964;5.660;2023-05-07T21:34:43;20.3;63.7
78475;SHT31;67766;51.964;5.660;2023-05-07T21:37:16;20.3;63.8
78475;SHT31;67766;51.964;5.660;2023-05-07T21:39:45;20.3;63.8
78475;SHT31;67766;51.964;5.660;2023-05-07T21:42:15;20.3;63.6
78475;SHT31;67766;51.964;5.660;2023-05-07T21:44:44;20.3;63.7
78475;SHT31;67766;51.964;5.660;2023-05-07T21:47:14;20.3;63.7
78475;SHT31;67766;51.964;5.660;2023-05-07T21:49:44;20.3;63.7
78475;SHT31;67766;51.964;5.660;2023-05-07T21:52:15;20.2;63.7
78475;SHT31;67766;51.964;5.660;2023-05-07T21:54:45;20.2;63.9
78475;SHT31;67766;51.964;5.660;2023-05-07T21:57:15;20.2;64.2
78475;SHT31;67766;51.964;5.660;2023-05-07T21:59:44;20.2;64.2
78475;SHT31;67766;51.964;5.660;2023-05-07T22:02:14;20.2;64.2
78475;SHT31;67766;51.964;5.660;2023-05-07T22:04:44;20.2;64.3
78475;SHT31;67766;51.964;5.660;2023-05-07T22:07:14;20.2;64.4
78475;SHT31;67766;51.964;5.660;2023-05-07T22:09:44;20.2;64.6
78475;SHT31;67766;51.964;5.660;2023-05-07T22:12:13;20.2;64.7
78475;SHT31;67766;51.964;5.660;2023-05-07T22:14:43;20.2;64.7
78475;SHT31;67766;51.964;5.660;2023-05-07T22:17:15;20.2;64.7
78475;SHT31;67766;51.964;5.660;2023-05-07T22:19:44;20.1;64.6
78475;SHT31;67766;51.964;5.660;2023-05-07T22:22:14;20.1;64.5
78475;SHT31;67766;51.964;5.660;2023-05-07T22:24:45;20.1;64.5
78475;SHT31;67766;51.964;5.660;2023-05-07T22:27:15;20.1;64.5
78475;SHT31;67766;51.964;5.660;2023-05-07T22:29:44;20.1;64.5
78475;SHT31;67766;51.964;5.660;2023-05-07T22:32:14;20.1;64.5
78475;SHT31;67766;51.964;5.660;2023-05-07T22:34:43;20.1;64.6
78475;SHT31;67766;51.964;5.660;2023-05-07T22:37:13;20.1;64.6
78475;SHT31;67766;51.964;5.660;2023-05-07T22:39:42;20.1;64.4
78475;SHT31;67766;51.964;5.660;2023-05-07T22:42:12;20.1;64.3
78475;SHT31;67766;51.964;5.660;2023-05-07T22:44:42;20.1;64.1
78475;SHT31;67766;51.964;5.660;2023-05-07T22:47:11;20.1;64.0
78475;SHT31;67766;51.964;5.660;2023-05-07T22:49:41;20.1;64.0
78475;SHT31;67766;51.964;5.660;2023-05-07T22:52:10;20.1;64.0
78475;SHT31;67766;51.964;5.660;2023-05-07T22:54:40;20.1;64.0
78475;SHT31;67766;51.964;5.660;2023-05-07T22:57:10;20.1;64.0
78475;SHT31;67766;51.964;5.660;2023-05-07T22:59:40;20.1;64.0
78475;SHT31;67766;51.964;5.660;2023-05-07T23:02:09;20.1;64.2
78475;SHT31;67766;51.964;5.660;2023-05-07T23:04:39;20.0;64.2
78475;SHT31;67766;51.964;5.660;2023-05-07T23:07:09;20.0;64.3
78475;SHT31;67766;51.964;5.660;2023-05-07T23:09:38;20.0;64.3
78475;SHT31;67766;51.964;5.660;2023-05-07T23:12:08;20.0;64.3
78475;SHT31;67766;51.964;5.660;2023-05-07T23:14:38;20.0;64.4
78475;SHT31;67766;51.964;5.660;2023-05-07T23:17:07;20.0;64.4
78475;SHT31;67766;51.964;5.660;2023-05-07T23:19:37;20.0;64.4
78475;SHT31;67766;51.964;5.660;2023-05-07T23:22:07;20.0;64.4
78475;SHT31;67766;51.964;5.660;2023-05-07T23:24:36;20.0;64.3
78475;SHT31;67766;51.964;5.660;2023-05-07T23:27:07;20.0;64.4
78475;SHT31;67766;51.964;5.660;2023-05-07T23:29:36;20.0;64.3
78475;SHT31;67766;51.964;5.660;2023-05-07T23:32:06;20.0;64.4
78475;SHT31;67766;51.964;5.660;2023-05-07T23:34:35;19.9;64.4
78475;SHT31;67766;51.964;5.660;2023-05-07T23:37:07;19.9;64.4
78475;SHT31;67766;51.964;5.660;2023-05-07T23:39:36;19.9;64.5
78475;SHT31;67766;51.964;5.660;2023-05-07T23:42:06;19.9;64.4
78475;SHT31;67766;51.964;5.660;2023-05-07T23:44:36;19.9;64.5
78475;SHT31;67766;51.964;5.660;2023-05-07T23:47:06;19.9;64.4
78475;SHT31;67766;51.964;5.660;2023-05-07T23:49:35;19.9;64.4
78475;SHT31;67766;51.964;5.660;2023-05-07T23:52:05;19.9;64.4
78475;SHT31;67766;51.964;5.660;2023-05-07T23:54:35;19.9;64.3
78475;SHT31;67766;51.964;5.660;2023-05-07T23:57:06;19.8;64.3
78475;SHT31;67766;51.964;5.660;2023-05-07T23:59:36;19.8;64.4
